Prairieville, Missouri
Current Conditions -  °F | °C
As of 10:35 PM on Tuesday 21 Oct 2014 (Local Time) from KPPQ Reporting Station
Clear Clear  
Wind Chill: 45°   Ceiling: Unl
Heat Index: 48°   Visibility: 10mi
Dew Point: 40°   Wind: 6mph
Humidity: 73%   Direction: 70°ENE
Pressure: 30.23"   Gusts: NA
Location:  39.2534°N, 91.009°W
Report Text: KPPQ 220335Z AUTO 07005KT 10SM CLR 09/04 A3023 RMK AO2 T00890043
Loading
Personal Weather Stations






























Interactive Weather Map
Tropical Storm Tracking
New forecast layout! Learn more

10-Day Weather Forecast

Advertisements
Track Severe Weather on mobile